Snow/Ice From: 17-12-2018 09:00 Until: 17:00 warning for: Snow/Ice Level: Yellow info button
suomi:
Liikennesää: Ajokeli muuttuu huonoksi päivällä lumisateen vuoksi.

svenska:
Trafikvädret: Väglaget blir dåligt på dagen p.g.a. snöfall.

english:
Traffic weather warning: Bad road conditions are expected at noon and in the afternoon because of snow. 


Thunder radar more information blitzortung!


Löydät sääaseman tiedot myös:

European Weather Network

Finland Weather Exchange

Weather Underground

AWEKAS



Weather Underground säähistoriasivu

Päivittäin yhteenveto Huhtikuu 8, 2017 Yksiköt:  Metriset    Englantilaiset   Molemmat
« Edellinen Päivä
Seuraava Päivä »
Päivittäin Viikoittain Kuukausittain Vuosittain Mukautettu
  Korkea: Matala: Keskiarvo:
Lämpötila: -17.8 °C -19.7 °C -17.2 °C
Kastepiste: -17.8 °C -22 °C -20.3 °C
Kosteus: Humidity % 41 % 68 %
Tuulen nopeus: 0 km/h 0 km/h 0.5 km/h
Tuulenpuuska: 0 km/h - -
Tuuli:- - WNW
Ilmanpaine: 0 hPa 34235.8 hPa -
Sade: 0 mm    
Historical Graphs
 
 
Taulukkotiedot Huhtikuu 8, 2017
Aika Lämpötila Kastepiste Ilmanpaine Tuuli Tuulen nopeus Tuulenpuuska Kosteus Sademäärä (tunneittain)
-17.8 °C -17.8 °C 0 hPa Calm     Humidity % 0 mm
00:00 -19.1 °C -21.1 °C 34235.8 hPa Calm   2.6 km/h 76 % 0 mm
00:15 -19.1 °C -21 °C 34235.8 hPa Calm     77 % 0 mm
00:45 -19.3 °C -21.1 °C 34235.8 hPa Calm     78 % 0 mm
01:00 -19.3 °C -21.1 °C 34235.8 hPa Calm     79 % 0 mm
01:15 -19.4 °C -21.1 °C 34235.8 hPa Calm     80 % 0 mm
01:30 -19.4 °C -20.9 °C 34235.8 hPa Calm     82 % 0 mm
01:45 -19.5 °C -20.8 °C 34235.8 hPa Calm     83 % 0 mm
02:00 -19.6 °C -20.8 °C 34235.8 hPa Calm     85 % 0 mm
02:15 -19.7 °C -20.8 °C 34235.8 hPa Calm     86 % 0 mm
02:30 -19.7 °C -20.8 °C 34235.8 hPa Calm     86 % 0 mm
02:45 -19.7 °C -20.7 °C 34235.8 hPa Calm     87 % 0 mm
03:00 -19.7 °C -20.8 °C 34235.8 hPa Calm     87 % 0 mm
03:15 -19.7 °C -20.7 °C 34235.8 hPa Calm     88 % 0 mm
03:30 -19.7 °C -20.7 °C 34235.8 hPa Calm     88 % 0 mm
03:45 -19.6 °C -20.5 °C 34235.8 hPa Calm     89 % 0 mm
04:00 -19.6 °C -20.4 °C 34235.8 hPa Calm     89 % 0 mm
04:15 -19.4 °C -20.3 °C 34246 hPa Calm     89 % 0 mm
04:30 -19.3 °C -20.1 °C 34235.8 hPa Calm     90 % 0 mm
04:45 -19.2 °C -20 °C 34235.8 hPa Calm     90 % 0 mm
05:00 -19.1 °C -19.9 °C 34235.8 hPa Calm     90 % 0 mm
05:15 -19.1 °C -19.9 °C 34235.8 hPa Calm     90 % 0 mm
05:30 -19.1 °C -19.9 °C 34235.8 hPa Calm     90 % 0 mm
05:45 -19 °C -19.7 °C 34235.8 hPa Calm     91 % 0 mm
06:00 -18.9 °C -19.7 °C 34246 hPa Calm     91 % 0 mm
06:15 -18.9 °C -19.6 °C 34246 hPa Calm     91 % 0 mm
06:30 -18.8 °C -19.6 °C 34246 hPa Calm     91 % 0 mm
06:45 -18.8 °C -19.5 °C 34256.2 hPa Calm     91 % 0 mm
07:00 -18.7 °C -19.4 °C 34256.2 hPa Calm   2.6 km/h 91 % 0 mm
07:15 -18.6 °C -19.3 °C 34256.2 hPa Calm     90 % 0 mm
07:30 -18.5 °C -19.4 °C 34269.7 hPa Calm     89 % 0 mm
07:45 -18.4 °C -19.4 °C 34269.7 hPa Calm   5.1 km/h 88 % 0 mm
08:00 -18.4 °C -19.3 °C 34269.7 hPa Calm     88 % 0 mm
08:15 -18.4 °C -19.3 °C 34279.9 hPa Calm   2.6 km/h 88 % 0 mm
08:30 -18.4 °C -19.3 °C 34279.9 hPa Calm     88 % 0 mm
08:45 -18.3 °C -19.2 °C 34279.9 hPa Calm   2.6 km/h 88 % 0 mm
09:00 -18.2 °C -19.2 °C 34279.9 hPa Calm   2.6 km/h 88 % 0 mm
09:15 -18.1 °C -19.2 °C 34279.9 hPa Calm   7.7 km/h 86 % 0 mm
09:30 -17.9 °C -19.1 °C 34293.4 hPa Calm   7.7 km/h 86 % 0 mm
09:45 -17.8 °C -19.1 °C 34293.4 hPa Calm   5.1 km/h 84 % 0 mm
10:00 -17.6 °C -19.2 °C 34293.4 hPa Calm   2.6 km/h 81 % 0 mm
10:15 -17.4 °C -19.3 °C 34293.4 hPa Calm   5.1 km/h 78 % 0 mm
10:30 -17 °C -19.1 °C 34293.4 hPa Calm     76 % 0 mm
10:45 -16.7 °C -19.3 °C 34293.4 hPa Calm   2.6 km/h 71 % 0 mm
11:00 -16.3 °C -18.9 °C 34293.4 hPa Calm   5.1 km/h 71 % 0 mm
11:15 -16.2 °C -19.8 °C 34293.4 hPa NNW 2.6 km/h 7.7 km/h 63 % 0 mm
11:30 -16.2 °C -20.3 °C 34303.6 hPa Calm   7.7 km/h 59 % 0 mm
11:45 -16 °C -19.7 °C 34303.6 hPa Calm   5.1 km/h 62 % 0 mm
12:00 -16 °C -19.8 °C 34303.6 hPa Calm   7.7 km/h 61 % 0 mm
12:15 -15.9 °C -20.3 °C 34303.6 hPa NNE 2.6 km/h 10.3 km/h 56 % 0 mm
12:30 -15.8 °C -20 °C 34303.6 hPa Calm   7.7 km/h 58 % 0 mm
12:45 -15.6 °C -20.3 °C 34303.6 hPa NW 2.6 km/h 12.9 km/h 54 % 0 mm
13:00 -15.6 °C -20.4 °C 34313.7 hPa Calm   12.9 km/h 53 % 0 mm
13:15 -15.6 °C -21 °C 34313.7 hPa Calm   5.1 km/h 49 % 0 mm
13:30 -15.3 °C -20.6 °C 34313.7 hPa Calm   7.7 km/h 50 % 0 mm
13:45 -15.1 °C -20.3 °C 34303.6 hPa Calm   12.9 km/h 51 % 0 mm
14:00 -15.2 °C -20.5 °C 34303.6 hPa NW 5.1 km/h 18.2 km/h 50 % 0 mm
14:15 -15.3 °C -20.3 °C 34303.6 hPa NW 2.6 km/h 12.9 km/h 52 % 0 mm
14:30 -15.1 °C -20.2 °C 34303.6 hPa Calm   7.7 km/h 52 % 0 mm
14:45 -15.2 °C -20.5 °C 34303.6 hPa South 5.1 km/h 18.2 km/h 50 % 0 mm
15:00 -15 °C -21.6 °C 34303.6 hPa NW 2.6 km/h 12.9 km/h 42 % 0 mm
15:15 -14.9 °C -21.7 °C 34303.6 hPa NNW 2.6 km/h 15.6 km/h 41 % 0 mm
15:30 -14.8 °C -21.6 °C 34303.6 hPa NW 2.6 km/h 15.6 km/h 41 % 0 mm
15:45 -14.9 °C -21.6 °C 34303.6 hPa NW 2.6 km/h 10.3 km/h 42 % 0 mm
16:00 -14.9 °C -21.3 °C 34293.4 hPa NW 2.6 km/h 12.9 km/h 43 % 0 mm
16:15 -15 °C -21.3 °C 34293.4 hPa Calm   7.7 km/h 44 % 0 mm
16:30 -15.1 °C -21.9 °C 34293.4 hPa NW 2.6 km/h 10.3 km/h 41 % 0 mm
16:45 -15.2 °C -21.1 °C 34293.4 hPa Calm   2.6 km/h 46 % 0 mm
17:00 -15.2 °C -20.9 °C 34293.4 hPa Calm     47 % 0 mm
17:15 -15.2 °C -21.4 °C 34293.4 hPa Calm     44 % 0 mm
17:30 -15.2 °C -21.4 °C 34293.4 hPa Calm     44 % 0 mm
17:45 -15.3 °C -22 °C 34279.9 hPa Calm     41 % 0 mm
18:00 -15.3 °C -21.1 °C 34279.9 hPa Calm     47 % 0 mm
18:15 -15.3 °C -21.7 °C 34279.9 hPa Calm   2.6 km/h 43 % 0 mm
18:30 -15.3 °C -21.4 °C 34279.9 hPa Calm     45 % 0 mm
18:45 -15.2 °C -22 °C 34279.9 hPa Calm     41 % 0 mm
19:00 -15.3 °C -21.9 °C 34279.9 hPa Calm   5.1 km/h 42 % 0 mm
19:15 -15.4 °C -20.6 °C 34279.9 hPa Calm   2.6 km/h 51 % 0 mm
19:30 -15.7 °C -21.2 °C 34269.7 hPa Calm     48 % 0 mm
19:45 -15.7 °C -20.7 °C 34279.9 hPa Calm     52 % 0 mm
20:00 -15.8 °C -20.6 °C 34279.9 hPa Calm     53 % 0 mm
20:15 -15.9 °C -21.1 °C 34279.9 hPa Calm     51 % 0 mm
20:45 -16.3 °C -20.6 °C 34279.9 hPa Calm     57 % 0 mm
21:00 -16.4 °C -20.6 °C 34279.9 hPa Calm     58 % 0 mm
21:15 -16.4 °C -20.3 °C 34279.9 hPa SW 2.6 km/h 10.3 km/h 60 % 0 mm
21:30 -16.5 °C -20.2 °C 34279.9 hPa Calm   2.6 km/h 62 % 0 mm
21:45 -16.6 °C -19.9 °C 34279.9 hPa Calm     64 % 0 mm
22:00 -16.7 °C -20.1 °C 34269.7 hPa Calm     64 % 0 mm
22:15 -16.8 °C -19.8 °C 34269.7 hPa Calm     67 % 0 mm
22:30 -16.9 °C -19.9 °C 34269.7 hPa Calm     67 % 0 mm
22:45 -17.1 °C -19.7 °C 34269.7 hPa Calm     70 % 0 mm
23:00 -17.2 °C -19.8 °C 34256.2 hPa Calm     71 % 0 mm
23:15 -17.3 °C -19.8 °C 34256.2 hPa Calm   5.1 km/h 72 % 0 mm
23:30 -17.3 °C -19.7 °C 34246 hPa Calm   5.1 km/h 73 % 0 mm
23:45 -17.2 °C -19.4 °C 34235.8 hPa Calm     75 % 0 mm
Esan sääasema
Terveisin Weather Underground - 2.75 mb

Alkuperäinen skripti  Jim McMurry - jmcmurry@mwt.net Sovitettu myös templatelle  Wim van der Kuil - Leuven-Template.eu

Laitteet joita käytämme:

Sääasema
Davis VP2

Sääasemaohjelma
Cumulus

Sääaseman tietokone
Asus EeePC

Palveluntarjoaja
Suncomet

Davis VP2

Cumulus

Asus EeePC

Suncomet